sensor_id;sensor_type;location;lat;lon;timestamp;temperature;humidity
21811;DHT22;11067;48.788;9.208;2023-04-24T00:02:13;11.90;99.90
21811;DHT22;11067;48.788;9.208;2023-04-24T00:04:38;12.00;99.90
21811;DHT22;11067;48.788;9.208;2023-04-24T00:07:10;12.00;99.90
21811;DHT22;11067;48.788;9.208;2023-04-24T00:09:36;12.00;99.90
21811;DHT22;11067;48.788;9.208;2023-04-24T00:12:01;11.90;99.90
21811;DHT22;11067;48.788;9.208;2023-04-24T00:14:30;12.00;99.90
21811;DHT22;11067;48.788;9.208;2023-04-24T00:16:55;12.10;99.90
21811;DHT22;11067;48.788;9.208;2023-04-24T00:19:21;12.00;99.90
21811;DHT22;11067;48.788;9.208;2023-04-24T00:21:47;12.10;99.90
21811;DHT22;11067;48.788;9.208;2023-04-24T00:24:16;12.10;99.90
21811;DHT22;11067;48.788;9.208;2023-04-24T00:26:41;12.00;99.90
21811;DHT22;11067;48.788;9.208;2023-04-24T00:29:07;12.00;99.90
21811;DHT22;11067;48.788;9.208;2023-04-24T00:31:33;12.00;99.90
21811;DHT22;11067;48.788;9.208;2023-04-24T00:34:00;12.00;99.90
21811;DHT22;11067;48.788;9.208;2023-04-24T00:36:27;12.00;99.90
21811;DHT22;11067;48.788;9.208;2023-04-24T00:38:53;12.00;99.90
21811;DHT22;11067;48.788;9.208;2023-04-24T00:41:19;12.10;99.90
21811;DHT22;11067;48.788;9.208;2023-04-24T00:43:45;12.10;99.90
21811;DHT22;11067;48.788;9.208;2023-04-24T00:46:11;12.20;99.90
21811;DHT22;11067;48.788;9.208;2023-04-24T00:48:40;12.20;99.90
21811;DHT22;11067;48.788;9.208;2023-04-24T00:51:06;12.20;99.90
21811;DHT22;11067;48.788;9.208;2023-04-24T00:53:32;12.20;99.90
21811;DHT22;11067;48.788;9.208;2023-04-24T00:55:58;12.20;99.90
21811;DHT22;11067;48.788;9.208;2023-04-24T00:58:25;12.30;99.90
21811;DHT22;11067;48.788;9.208;2023-04-24T01:00:52;12.20;99.90
21811;DHT22;11067;48.788;9.208;2023-04-24T01:03:26;12.20;99.90
21811;DHT22;11067;48.788;9.208;2023-04-24T01:05:54;12.20;99.90
21811;DHT22;11067;48.788;9.208;2023-04-24T01:08:26;12.30;99.90
21811;DHT22;11067;48.788;9.208;2023-04-24T01:10:52;12.30;99.90
21811;DHT22;11067;48.788;9.208;2023-04-24T01:13:19;12.30;99.90
21811;DHT22;11067;48.788;9.208;2023-04-24T01:15:45;12.40;99.90
21811;DHT22;11067;48.788;9.208;2023-04-24T01:18:11;12.30;99.90
21811;DHT22;11067;48.788;9.208;2023-04-24T01:20:39;12.30;99.90
21811;DHT22;11067;48.788;9.208;2023-04-24T01:23:06;12.40;99.90
21811;DHT22;11067;48.788;9.208;2023-04-24T01:25:32;12.40;99.90
21811;DHT22;11067;48.788;9.208;2023-04-24T01:27:59;12.40;99.90
21811;DHT22;11067;48.788;9.208;2023-04-24T01:30:25;12.40;99.90
21811;DHT22;11067;48.788;9.208;2023-04-24T01:32:51;12.40;99.90
21811;DHT22;11067;48.788;9.208;2023-04-24T01:35:17;12.30;99.90
21811;DHT22;11067;48.788;9.208;2023-04-24T01:37:42;12.30;99.90
21811;DHT22;11067;48.788;9.208;2023-04-24T01:40:08;12.20;99.90
21811;DHT22;11067;48.788;9.208;2023-04-24T01:42:34;12.20;99.90
21811;DHT22;11067;48.788;9.208;2023-04-24T01:45:02;12.20;99.90
21811;DHT22;11067;48.788;9.208;2023-04-24T01:47:29;12.20;99.90
21811;DHT22;11067;48.788;9.208;2023-04-24T01:49:55;12.10;99.90
21811;DHT22;11067;48.788;9.208;2023-04-24T01:52:21;12.10;99.90
21811;DHT22;11067;48.788;9.208;2023-04-24T01:54:46;12.10;99.90
21811;DHT22;11067;48.788;9.208;2023-04-24T01:57:13;12.10;99.90
21811;DHT22;11067;48.788;9.208;2023-04-24T01:59:39;12.10;99.90
21811;DHT22;11067;48.788;9.208;2023-04-24T02:02:05;12.10;99.90
21811;DHT22;11067;48.788;9.208;2023-04-24T02:04:31;12.00;99.90
21811;DHT22;11067;48.788;9.208;2023-04-24T02:06:56;12.00;99.90
21811;DHT22;11067;48.788;9.208;2023-04-24T02:09:22;12.10;99.90
21811;DHT22;11067;48.788;9.208;2023-04-24T02:11:48;12.10;99.90
21811;DHT22;11067;48.788;9.208;2023-04-24T02:14:13;12.00;99.90
21811;DHT22;11067;48.788;9.208;2023-04-24T02:16:39;12.00;99.90
21811;DHT22;11067;48.788;9.208;2023-04-24T02:19:04;11.90;99.90
21811;DHT22;11067;48.788;9.208;2023-04-24T02:21:30;11.90;99.90
21811;DHT22;11067;48.788;9.208;2023-04-24T02:23:56;11.90;99.90
21811;DHT22;11067;48.788;9.208;2023-04-24T02:26:22;11.90;99.90
21811;DHT22;11067;48.788;9.208;2023-04-24T02:28:47;12.00;99.90
21811;DHT22;11067;48.788;9.208;2023-04-24T02:31:13;11.90;99.90
21811;DHT22;11067;48.788;9.208;2023-04-24T02:33:38;11.90;99.90
21811;DHT22;11067;48.788;9.208;2023-04-24T02:36:04;11.90;99.90
21811;DHT22;11067;48.788;9.208;2023-04-24T02:38:29;11.90;99.90
21811;DHT22;11067;48.788;9.208;2023-04-24T02:40:55;11.90;99.90
21811;DHT22;11067;48.788;9.208;2023-04-24T02:43:21;11.90;99.90
21811;DHT22;11067;48.788;9.208;2023-04-24T02:45:46;11.90;99.90
21811;DHT22;11067;48.788;9.208;2023-04-24T02:48:12;11.80;99.90
21811;DHT22;11067;48.788;9.208;2023-04-24T02:50:37;11.80;99.90
21811;DHT22;11067;48.788;9.208;2023-04-24T02:53:03;11.80;99.90
21811;DHT22;11067;48.788;9.208;2023-04-24T02:55:28;11.80;99.90
21811;DHT22;11067;48.788;9.208;2023-04-24T02:57:54;11.70;99.90
21811;DHT22;11067;48.788;9.208;2023-04-24T03:00:20;11.60;99.90
21811;DHT22;11067;48.788;9.208;2023-04-24T03:02:46;11.60;99.90
21811;DHT22;11067;48.788;9.208;2023-04-24T03:05:11;11.60;99.90
21811;DHT22;11067;48.788;9.208;2023-04-24T03:07:39;11.50;99.90
21811;DHT22;11067;48.788;9.208;2023-04-24T03:10:06;11.50;99.90
21811;DHT22;11067;48.788;9.208;2023-04-24T03:12:32;11.50;99.90
21811;DHT22;11067;48.788;9.208;2023-04-24T03:14:57;11.50;99.90
21811;DHT22;11067;48.788;9.208;2023-04-24T03:17:23;11.40;99.90
21811;DHT22;11067;48.788;9.208;2023-04-24T03:19:48;11.50;99.90
21811;DHT22;11067;48.788;9.208;2023-04-24T03:22:14;11.40;99.90
21811;DHT22;11067;48.788;9.208;2023-04-24T03:24:39;11.40;99.90
21811;DHT22;11067;48.788;9.208;2023-04-24T03:27:05;11.30;99.90
21811;DHT22;11067;48.788;9.208;2023-04-24T03:29:31;11.30;99.90
21811;DHT22;11067;48.788;9.208;2023-04-24T03:31:56;11.30;99.90
21811;DHT22;11067;48.788;9.208;2023-04-24T03:34:22;11.30;99.90
21811;DHT22;11067;48.788;9.208;2023-04-24T03:36:47;11.30;99.90
21811;DHT22;11067;48.788;9.208;2023-04-24T03:39:13;11.20;99.90
21811;DHT22;11067;48.788;9.208;2023-04-24T03:41:39;11.20;99.90
21811;DHT22;11067;48.788;9.208;2023-04-24T03:44:04;11.20;99.90
21811;DHT22;11067;48.788;9.208;2023-04-24T03:46:30;11.20;99.90
21811;DHT22;11067;48.788;9.208;2023-04-24T03:48:55;11.30;99.90
21811;DHT22;11067;48.788;9.208;2023-04-24T03:51:21;11.30;99.90
21811;DHT22;11067;48.788;9.208;2023-04-24T03:53:47;11.20;99.90
21811;DHT22;11067;48.788;9.208;2023-04-24T03:56:13;11.20;99.90
21811;DHT22;11067;48.788;9.208;2023-04-24T03:58:38;11.10;99.90
21811;DHT22;11067;48.788;9.208;2023-04-24T04:01:04;11.00;99.90
21811;DHT22;11067;48.788;9.208;2023-04-24T04:03:29;11.00;99.90
21811;DHT22;11067;48.788;9.208;2023-04-24T04:05:55;11.10;99.90
21811;DHT22;11067;48.788;9.208;2023-04-24T04:08:20;11.00;99.90
21811;DHT22;11067;48.788;9.208;2023-04-24T04:10:46;11.00;99.90
21811;DHT22;11067;48.788;9.208;2023-04-24T04:13:11;11.10;99.90
21811;DHT22;11067;48.788;9.208;2023-04-24T04:15:37;11.10;99.90
21811;DHT22;11067;48.788;9.208;2023-04-24T04:18:03;11.10;99.90
21811;DHT22;11067;48.788;9.208;2023-04-24T04:20:28;11.20;99.90
21811;DHT22;11067;48.788;9.208;2023-04-24T04:22:54;11.20;99.90
21811;DHT22;11067;48.788;9.208;2023-04-24T04:25:19;11.20;99.90
21811;DHT22;11067;48.788;9.208;2023-04-24T04:27:46;11.30;99.90
21811;DHT22;11067;48.788;9.208;2023-04-24T04:30:13;11.40;99.90
21811;DHT22;11067;48.788;9.208;2023-04-24T04:32:39;11.40;99.90
21811;DHT22;11067;48.788;9.208;2023-04-24T04:35:05;11.30;99.90
21811;DHT22;11067;48.788;9.208;2023-04-24T04:37:33;11.10;99.90
21811;DHT22;11067;48.788;9.208;2023-04-24T04:39:59;11.00;99.90
21811;DHT22;11067;48.788;9.208;2023-04-24T04:42:25;10.90;99.90
21811;DHT22;11067;48.788;9.208;2023-04-24T04:44:52;10.90;99.90
21811;DHT22;11067;48.788;9.208;2023-04-24T04:47:20;10.90;99.90
21811;DHT22;11067;48.788;9.208;2023-04-24T04:49:47;10.90;99.90
21811;DHT22;11067;48.788;9.208;2023-04-24T04:52:13;10.80;99.90
21811;DHT22;11067;48.788;9.208;2023-04-24T04:54:39;10.70;99.90
21811;DHT22;11067;48.788;9.208;2023-04-24T04:57:05;10.60;99.90
21811;DHT22;11067;48.788;9.208;2023-04-24T04:59:30;10.50;99.90
21811;DHT22;11067;48.788;9.208;2023-04-24T05:01:56;10.60;99.90
21811;DHT22;11067;48.788;9.208;2023-04-24T05:04:22;10.60;99.90
21811;DHT22;11067;48.788;9.208;2023-04-24T05:06:47;10.60;99.90
21811;DHT22;11067;48.788;9.208;2023-04-24T05:09:13;10.50;99.90
21811;DHT22;11067;48.788;9.208;2023-04-24T05:11:38;10.50;99.90
21811;DHT22;11067;48.788;9.208;2023-04-24T05:14:04;10.50;99.90
21811;DHT22;11067;48.788;9.208;2023-04-24T05:16:29;10.50;99.90
21811;DHT22;11067;48.788;9.208;2023-04-24T05:18:56;10.50;99.90
21811;DHT22;11067;48.788;9.208;2023-04-24T05:21:21;10.60;99.90
21811;DHT22;11067;48.788;9.208;2023-04-24T05:23:47;10.60;99.90
21811;DHT22;11067;48.788;9.208;2023-04-24T05:26:13;10.60;99.90
21811;DHT22;11067;48.788;9.208;2023-04-24T05:28:39;10.50;99.90
21811;DHT22;11067;48.788;9.208;2023-04-24T05:31:05;10.60;99.90
21811;DHT22;11067;48.788;9.208;2023-04-24T05:33:31;10.60;99.90
21811;DHT22;11067;48.788;9.208;2023-04-24T05:35:57;10.50;99.90
21811;DHT22;11067;48.788;9.208;2023-04-24T05:38:23;10.60;99.90
21811;DHT22;11067;48.788;9.208;2023-04-24T05:40:48;10.60;99.90
21811;DHT22;11067;48.788;9.208;2023-04-24T05:43:14;10.60;99.90
21811;DHT22;11067;48.788;9.208;2023-04-24T05:45:40;10.60;99.90
21811;DHT22;11067;48.788;9.208;2023-04-24T05:48:05;10.60;99.90
21811;DHT22;11067;48.788;9.208;2023-04-24T05:50:31;10.60;99.90
21811;DHT22;11067;48.788;9.208;2023-04-24T05:52:57;10.60;99.90
21811;DHT22;11067;48.788;9.208;2023-04-24T05:55:27;10.60;99.90
21811;DHT22;11067;48.788;9.208;2023-04-24T05:57:52;10.70;99.90
21811;DHT22;11067;48.788;9.208;2023-04-24T06:00:18;10.80;99.90
21811;DHT22;11067;48.788;9.208;2023-04-24T06:02:45;10.80;99.90
21811;DHT22;11067;48.788;9.208;2023-04-24T06:05:11;10.70;99.90
21811;DHT22;11067;48.788;9.208;2023-04-24T06:07:37;10.80;99.90
21811;DHT22;11067;48.788;9.208;2023-04-24T06:10:03;10.70;99.90
21811;DHT22;11067;48.788;9.208;2023-04-24T06:12:28;10.60;99.90
21811;DHT22;11067;48.788;9.208;2023-04-24T06:14:54;10.70;99.90
21811;DHT22;11067;48.788;9.208;2023-04-24T06:17:20;10.70;99.90
21811;DHT22;11067;48.788;9.208;2023-04-24T06:19:46;10.80;99.90
21811;DHT22;11067;48.788;9.208;2023-04-24T06:22:12;10.60;99.90
21811;DHT22;11067;48.788;9.208;2023-04-24T06:24:39;10.80;99.90
21811;DHT22;11067;48.788;9.208;2023-04-24T06:27:04;11.10;99.90
21811;DHT22;11067;48.788;9.208;2023-04-24T06:29:30;11.40;99.90
21811;DHT22;11067;48.788;9.208;2023-04-24T06:31:55;11.70;99.90
21811;DHT22;11067;48.788;9.208;2023-04-24T06:34:21;11.70;99.90
21811;DHT22;11067;48.788;9.208;2023-04-24T06:36:47;12.10;99.90
21811;DHT22;11067;48.788;9.208;2023-04-24T06:39:12;12.50;99.90
21811;DHT22;11067;48.788;9.208;2023-04-24T06:41:38;12.60;99.90
21811;DHT22;11067;48.788;9.208;2023-04-24T06:44:05;12.50;99.90
21811;DHT22;11067;48.788;9.208;2023-04-24T06:46:30;12.50;99.90
21811;DHT22;11067;48.788;9.208;2023-04-24T06:48:56;12.80;99.90
21811;DHT22;11067;48.788;9.208;2023-04-24T06:51:25;12.90;99.90
21811;DHT22;11067;48.788;9.208;2023-04-24T06:53:54;13.00;99.90
21811;DHT22;11067;48.788;9.208;2023-04-24T06:56:21;13.10;99.90
21811;DHT22;11067;48.788;9.208;2023-04-24T06:58:47;13.00;99.90
21811;DHT22;11067;48.788;9.208;2023-04-24T07:01:13;13.20;99.90
21811;DHT22;11067;48.788;9.208;2023-04-24T07:03:38;13.00;99.90
21811;DHT22;11067;48.788;9.208;2023-04-24T07:06:05;13.20;99.90
21811;DHT22;11067;48.788;9.208;2023-04-24T07:08:31;13.50;99.90
21811;DHT22;11067;48.788;9.208;2023-04-24T07:10:57;13.30;99.90
21811;DHT22;11067;48.788;9.208;2023-04-24T07:13:23;13.60;99.90
21811;DHT22;11067;48.788;9.208;2023-04-24T07:15:49;13.50;99.90
21811;DHT22;11067;48.788;9.208;2023-04-24T07:18:19;13.40;99.90
21811;DHT22;11067;48.788;9.208;2023-04-24T07:20:45;13.30;99.90
21811;DHT22;11067;48.788;9.208;2023-04-24T07:23:10;13.10;99.90
21811;DHT22;11067;48.788;9.208;2023-04-24T07:25:36;12.80;99.90
21811;DHT22;11067;48.788;9.208;2023-04-24T07:28:02;12.70;99.90
21811;DHT22;11067;48.788;9.208;2023-04-24T07:30:28;12.60;99.90
21811;DHT22;11067;48.788;9.208;2023-04-24T07:32:54;12.60;99.90
21811;DHT22;11067;48.788;9.208;2023-04-24T07:35:21;12.50;99.90
21811;DHT22;11067;48.788;9.208;2023-04-24T07:37:46;12.50;99.90
21811;DHT22;11067;48.788;9.208;2023-04-24T07:40:13;12.60;99.90
21811;DHT22;11067;48.788;9.208;2023-04-24T07:42:39;12.70;99.90
21811;DHT22;11067;48.788;9.208;2023-04-24T07:45:05;13.00;99.90
21811;DHT22;11067;48.788;9.208;2023-04-24T07:47:31;13.30;99.90
21811;DHT22;11067;48.788;9.208;2023-04-24T07:49:57;13.60;99.90
21811;DHT22;11067;48.788;9.208;2023-04-24T07:52:23;13.40;99.90
21811;DHT22;11067;48.788;9.208;2023-04-24T07:54:49;13.20;99.90
21811;DHT22;11067;48.788;9.208;2023-04-24T07:57:15;13.30;99.90
21811;DHT22;11067;48.788;9.208;2023-04-24T07:59:41;13.00;99.90
21811;DHT22;11067;48.788;9.208;2023-04-24T08:02:07;13.20;99.90
21811;DHT22;11067;48.788;9.208;2023-04-24T08:04:32;13.30;99.90
21811;DHT22;11067;48.788;9.208;2023-04-24T08:06:58;13.30;99.90
21811;DHT22;11067;48.788;9.208;2023-04-24T08:09:24;13.10;99.90
21811;DHT22;11067;48.788;9.208;2023-04-24T08:11:49;13.00;99.90
21811;DHT22;11067;48.788;9.208;2023-04-24T08:14:15;13.00;99.90
21811;DHT22;11067;48.788;9.208;2023-04-24T08:16:41;13.00;99.90
21811;DHT22;11067;48.788;9.208;2023-04-24T08:19:06;12.90;99.90
21811;DHT22;11067;48.788;9.208;2023-04-24T08:21:32;12.90;99.90
21811;DHT22;11067;48.788;9.208;2023-04-24T08:23:58;13.10;99.90
21811;DHT22;11067;48.788;9.208;2023-04-24T08:26:23;12.80;99.90
21811;DHT22;11067;48.788;9.208;2023-04-24T08:28:50;12.70;99.90
21811;DHT22;11067;48.788;9.208;2023-04-24T08:31:15;12.60;99.90
21811;DHT22;11067;48.788;9.208;2023-04-24T08:33:41;12.70;99.90
21811;DHT22;11067;48.788;9.208;2023-04-24T08:36:07;12.80;99.90
21811;DHT22;11067;48.788;9.208;2023-04-24T08:38:33;12.90;99.90
21811;DHT22;11067;48.788;9.208;2023-04-24T08:41:00;13.10;99.90
21811;DHT22;11067;48.788;9.208;2023-04-24T08:43:27;13.10;99.90
21811;DHT22;11067;48.788;9.208;2023-04-24T08:45:54;13.10;99.90
21811;DHT22;11067;48.788;9.208;2023-04-24T08:48:21;13.00;99.90
21811;DHT22;11067;48.788;9.208;2023-04-24T08:50:48;12.80;99.90
21811;DHT22;11067;48.788;9.208;2023-04-24T08:53:16;12.80;99.90
21811;DHT22;11067;48.788;9.208;2023-04-24T08:55:43;12.80;99.90
21811;DHT22;11067;48.788;9.208;2023-04-24T08:58:11;12.70;99.90
21811;DHT22;11067;48.788;9.208;2023-04-24T09:00:39;12.80;99.90
21811;DHT22;11067;48.788;9.208;2023-04-24T09:03:05;12.70;99.90
21811;DHT22;11067;48.788;9.208;2023-04-24T09:05:32;12.70;99.90
21811;DHT22;11067;48.788;9.208;2023-04-24T09:07:59;12.70;99.90
21811;DHT22;11067;48.788;9.208;2023-04-24T09:10:27;12.80;99.90
21811;DHT22;11067;48.788;9.208;2023-04-24T09:12:56;12.70;99.90
21811;DHT22;11067;48.788;9.208;2023-04-24T09:15:24;12.80;99.90
21811;DHT22;11067;48.788;9.208;2023-04-24T09:17:50;12.70;99.90
21811;DHT22;11067;48.788;9.208;2023-04-24T09:20:16;12.30;99.90
21811;DHT22;11067;48.788;9.208;2023-04-24T09:22:42;12.30;99.90
21811;DHT22;11067;48.788;9.208;2023-04-24T09:25:09;11.90;99.90
21811;DHT22;11067;48.788;9.208;2023-04-24T09:27:44;11.70;99.90
21811;DHT22;11067;48.788;9.208;2023-04-24T09:30:11;11.60;99.90
21811;DHT22;11067;48.788;9.208;2023-04-24T09:32:36;11.70;99.90
21811;DHT22;11067;48.788;9.208;2023-04-24T09:35:12;11.70;99.90
21811;DHT22;11067;48.788;9.208;2023-04-24T09:37:43;11.50;99.90
21811;DHT22;11067;48.788;9.208;2023-04-24T09:40:14;11.50;99.90
21811;DHT22;11067;48.788;9.208;2023-04-24T09:42:46;11.60;99.90
21811;DHT22;11067;48.788;9.208;2023-04-24T09:45:16;11.70;99.90
21811;DHT22;11067;48.788;9.208;2023-04-24T09:47:42;11.50;99.90
21811;DHT22;11067;48.788;9.208;2023-04-24T09:50:15;11.80;99.90
21811;DHT22;11067;48.788;9.208;2023-04-24T09:52:42;11.90;99.90
21811;DHT22;11067;48.788;9.208;2023-04-24T09:55:13;12.30;99.90
21811;DHT22;11067;48.788;9.208;2023-04-24T09:57:52;12.70;99.90
21811;DHT22;11067;48.788;9.208;2023-04-24T10:00:21;13.00;99.90
21811;DHT22;11067;48.788;9.208;2023-04-24T10:02:54;12.50;99.90
21811;DHT22;11067;48.788;9.208;2023-04-24T10:05:23;12.50;99.90
21811;DHT22;11067;48.788;9.208;2023-04-24T10:07:49;12.40;99.90
21811;DHT22;11067;48.788;9.208;2023-04-24T10:10:14;12.80;99.90
21811;DHT22;11067;48.788;9.208;2023-04-24T10:12:40;12.80;99.90
21811;DHT22;11067;48.788;9.208;2023-04-24T10:15:07;12.70;99.90
21811;DHT22;11067;48.788;9.208;2023-04-24T10:17:35;12.70;99.90
21811;DHT22;11067;48.788;9.208;2023-04-24T10:20:01;12.80;99.90
21811;DHT22;11067;48.788;9.208;2023-04-24T10:22:28;12.90;99.90
21811;DHT22;11067;48.788;9.208;2023-04-24T10:24:56;13.30;99.90
21811;DHT22;11067;48.788;9.208;2023-04-24T10:27:23;13.60;99.90
21811;DHT22;11067;48.788;9.208;2023-04-24T10:29:51;13.60;99.90
21811;DHT22;11067;48.788;9.208;2023-04-24T10:32:18;14.10;99.90
21811;DHT22;11067;48.788;9.208;2023-04-24T10:34:43;14.20;99.90
21811;DHT22;11067;48.788;9.208;2023-04-24T10:37:09;14.30;99.90
21811;DHT22;11067;48.788;9.208;2023-04-24T10:39:35;14.00;99.90
21811;DHT22;11067;48.788;9.208;2023-04-24T10:42:14;13.90;99.90
21811;DHT22;11067;48.788;9.208;2023-04-24T10:44:40;13.50;99.90
21811;DHT22;11067;48.788;9.208;2023-04-24T10:47:13;13.30;99.90
21811;DHT22;11067;48.788;9.208;2023-04-24T10:49:39;13.40;99.90
21811;DHT22;11067;48.788;9.208;2023-04-24T10:52:05;13.60;99.90
21811;DHT22;11067;48.788;9.208;2023-04-24T10:54:46;13.70;99.90
21811;DHT22;11067;48.788;9.208;2023-04-24T11:00:09;13.10;99.90
21811;DHT22;11067;48.788;9.208;2023-04-24T11:02:37;13.20;99.90
21811;DHT22;11067;48.788;9.208;2023-04-24T11:05:04;13.60;99.90
21811;DHT22;11067;48.788;9.208;2023-04-24T11:07:30;13.50;99.90
21811;DHT22;11067;48.788;9.208;2023-04-24T11:10:01;13.70;99.90
21811;DHT22;11067;48.788;9.208;2023-04-24T11:12:26;13.90;99.90
21811;DHT22;11067;48.788;9.208;2023-04-24T11:15:00;13.70;99.90
21811;DHT22;11067;48.788;9.208;2023-04-24T11:17:36;13.60;99.90
21811;DHT22;11067;48.788;9.208;2023-04-24T11:20:11;13.20;99.90
21811;DHT22;11067;48.788;9.208;2023-04-24T11:22:38;13.00;99.90
21811;DHT22;11067;48.788;9.208;2023-04-24T11:25:08;13.40;99.90
21811;DHT22;11067;48.788;9.208;2023-04-24T11:27:44;13.60;99.90
21811;DHT22;11067;48.788;9.208;2023-04-24T11:30:11;13.70;99.90
21811;DHT22;11067;48.788;9.208;2023-04-24T11:32:39;13.70;99.90
21811;DHT22;11067;48.788;9.208;2023-04-24T11:35:16;13.60;99.90
21811;DHT22;11067;48.788;9.208;2023-04-24T11:37:44;13.50;99.90
21811;DHT22;11067;48.788;9.208;2023-04-24T11:40:12;14.10;99.90
21811;DHT22;11067;48.788;9.208;2023-04-24T11:42:48;14.00;99.90
21811;DHT22;11067;48.788;9.208;2023-04-24T11:47:42;14.00;99.90
21811;DHT22;11067;48.788;9.208;2023-04-24T11:50:13;13.90;99.90
21811;DHT22;11067;48.788;9.208;2023-04-24T11:52:44;13.70;99.90
21811;DHT22;11067;48.788;9.208;2023-04-24T11:55:30;13.60;99.90
21811;DHT22;11067;48.788;9.208;2023-04-24T11:57:58;13.50;99.90
21811;DHT22;11067;48.788;9.208;2023-04-24T12:00:32;12.60;99.90
21811;DHT22;11067;48.788;9.208;2023-04-24T12:03:10;12.70;99.90
21811;DHT22;11067;48.788;9.208;2023-04-24T12:05:36;12.70;99.90
21811;DHT22;11067;48.788;9.208;2023-04-24T12:08:02;13.20;99.90
21811;DHT22;11067;48.788;9.208;2023-04-24T12:10:29;13.70;99.90
21811;DHT22;11067;48.788;9.208;2023-04-24T12:12:56;13.90;99.90
21811;DHT22;11067;48.788;9.208;2023-04-24T12:15:23;14.30;99.90
21811;DHT22;11067;48.788;9.208;2023-04-24T12:17:51;13.90;99.90
21811;DHT22;11067;48.788;9.208;2023-04-24T12:20:17;14.10;99.90
21811;DHT22;11067;48.788;9.208;2023-04-24T12:23:01;14.00;99.90
21811;DHT22;11067;48.788;9.208;2023-04-24T12:25:28;13.70;99.90
21811;DHT22;11067;48.788;9.208;2023-04-24T12:27:57;13.20;99.90
21811;DHT22;11067;48.788;9.208;2023-04-24T12:30:45;13.30;99.90
21811;DHT22;11067;48.788;9.208;2023-04-24T12:33:20;13.50;99.90
21811;DHT22;11067;48.788;9.208;2023-04-24T12:35:47;13.40;99.90
21811;DHT22;11067;48.788;9.208;2023-04-24T12:38:13;13.20;99.90
21811;DHT22;11067;48.788;9.208;2023-04-24T12:40:42;13.30;99.90
21811;DHT22;11067;48.788;9.208;2023-04-24T12:43:19;13.40;99.90
21811;DHT22;11067;48.788;9.208;2023-04-24T12:45:45;13.20;99.90
21811;DHT22;11067;48.788;9.208;2023-04-24T12:48:11;13.30;99.90
21811;DHT22;11067;48.788;9.208;2023-04-24T12:50:39;13.10;99.90
21811;DHT22;11067;48.788;9.208;2023-04-24T12:53:06;13.20;99.90
21811;DHT22;11067;48.788;9.208;2023-04-24T12:55:31;13.60;99.90
21811;DHT22;11067;48.788;9.208;2023-04-24T12:57:57;13.50;99.90
21811;DHT22;11067;48.788;9.208;2023-04-24T13:00:23;13.20;99.90
21811;DHT22;11067;48.788;9.208;2023-04-24T13:02:49;13.10;99.90
21811;DHT22;11067;48.788;9.208;2023-04-24T13:05:14;13.10;99.90
21811;DHT22;11067;48.788;9.208;2023-04-24T13:07:40;13.20;99.90
21811;DHT22;11067;48.788;9.208;2023-04-24T13:10:07;13.10;99.90
21811;DHT22;11067;48.788;9.208;2023-04-24T13:12:32;12.80;99.90
21811;DHT22;11067;48.788;9.208;2023-04-24T13:14:58;12.30;99.90
21811;DHT22;11067;48.788;9.208;2023-04-24T13:17:24;12.10;99.90
21811;DHT22;11067;48.788;9.208;2023-04-24T13:19:51;12.10;99.90
21811;DHT22;11067;48.788;9.208;2023-04-24T13:22:17;12.20;99.90
21811;DHT22;11067;48.788;9.208;2023-04-24T13:24:44;12.40;99.90
21811;DHT22;11067;48.788;9.208;2023-04-24T13:27:10;12.60;99.90
21811;DHT22;11067;48.788;9.208;2023-04-24T13:29:36;12.60;99.90
21811;DHT22;11067;48.788;9.208;2023-04-24T13:32:02;12.70;99.90
21811;DHT22;11067;48.788;9.208;2023-04-24T13:34:27;12.60;99.90
21811;DHT22;11067;48.788;9.208;2023-04-24T13:36:54;13.10;99.90
21811;DHT22;11067;48.788;9.208;2023-04-24T13:39:20;13.10;99.90
21811;DHT22;11067;48.788;9.208;2023-04-24T13:41:46;12.90;99.90
21811;DHT22;11067;48.788;9.208;2023-04-24T13:44:14;13.00;99.90
21811;DHT22;11067;48.788;9.208;2023-04-24T13:46:39;13.10;99.90
21811;DHT22;11067;48.788;9.208;2023-04-24T13:49:05;13.10;99.90
21811;DHT22;11067;48.788;9.208;2023-04-24T13:51:30;13.10;99.90
21811;DHT22;11067;48.788;9.208;2023-04-24T13:53:56;13.30;99.90
21811;DHT22;11067;48.788;9.208;2023-04-24T13:56:22;13.00;99.90
21811;DHT22;11067;48.788;9.208;2023-04-24T13:58:48;11.80;99.90
21811;DHT22;11067;48.788;9.208;2023-04-24T14:01:14;11.40;99.90
21811;DHT22;11067;48.788;9.208;2023-04-24T14:03:41;11.10;99.90
21811;DHT22;11067;48.788;9.208;2023-04-24T14:06:07;10.90;99.90
21811;DHT22;11067;48.788;9.208;2023-04-24T14:08:32;11.10;99.90
21811;DHT22;11067;48.788;9.208;2023-04-24T14:10:58;11.20;99.90
21811;DHT22;11067;48.788;9.208;2023-04-24T14:13:23;11.70;99.90
21811;DHT22;11067;48.788;9.208;2023-04-24T14:15:49;12.00;99.90
21811;DHT22;11067;48.788;9.208;2023-04-24T14:18:15;11.90;99.90
21811;DHT22;11067;48.788;9.208;2023-04-24T14:20:40;12.10;99.90
21811;DHT22;11067;48.788;9.208;2023-04-24T14:23:06;12.40;99.90
21811;DHT22;11067;48.788;9.208;2023-04-24T14:25:31;12.30;99.90
21811;DHT22;11067;48.788;9.208;2023-04-24T14:27:57;12.20;99.90
21811;DHT22;11067;48.788;9.208;2023-04-24T14:30:22;12.50;99.90
21811;DHT22;11067;48.788;9.208;2023-04-24T14:32:48;12.30;99.90
21811;DHT22;11067;48.788;9.208;2023-04-24T14:35:14;12.60;99.90
21811;DHT22;11067;48.788;9.208;2023-04-24T14:37:41;12.70;99.90
21811;DHT22;11067;48.788;9.208;2023-04-24T14:40:08;13.00;99.90
21811;DHT22;11067;48.788;9.208;2023-04-24T14:42:34;13.10;99.90
21811;DHT22;11067;48.788;9.208;2023-04-24T14:45:00;13.00;99.90
21811;DHT22;11067;48.788;9.208;2023-04-24T14:47:26;13.00;99.90
21811;DHT22;11067;48.788;9.208;2023-04-24T14:49:52;12.80;99.90
21811;DHT22;11067;48.788;9.208;2023-04-24T14:52:17;12.90;99.90
21811;DHT22;11067;48.788;9.208;2023-04-24T14:54:43;12.80;99.90
21811;DHT22;11067;48.788;9.208;2023-04-24T14:57:09;13.00;99.90
21811;DHT22;11067;48.788;9.208;2023-04-24T14:59:34;13.00;99.90
21811;DHT22;11067;48.788;9.208;2023-04-24T15:02:00;13.00;99.90
21811;DHT22;11067;48.788;9.208;2023-04-24T15:04:27;13.00;99.90
21811;DHT22;11067;48.788;9.208;2023-04-24T15:06:53;13.10;99.90
21811;DHT22;11067;48.788;9.208;2023-04-24T15:09:22;13.20;99.90
21811;DHT22;11067;48.788;9.208;2023-04-24T15:11:49;13.00;99.90
21811;DHT22;11067;48.788;9.208;2023-04-24T15:14:15;12.90;99.90
21811;DHT22;11067;48.788;9.208;2023-04-24T15:16:41;13.00;99.90
21811;DHT22;11067;48.788;9.208;2023-04-24T15:19:07;12.90;99.90
21811;DHT22;11067;48.788;9.208;2023-04-24T15:21:32;13.10;99.90
21811;DHT22;11067;48.788;9.208;2023-04-24T15:23:58;12.80;99.90
21811;DHT22;11067;48.788;9.208;2023-04-24T15:26:24;12.90;99.90
21811;DHT22;11067;48.788;9.208;2023-04-24T15:28:51;12.90;99.90
21811;DHT22;11067;48.788;9.208;2023-04-24T15:31:17;12.70;99.90
21811;DHT22;11067;48.788;9.208;2023-04-24T15:33:43;12.50;99.90